Time;durP1;ratioP1;P1;durP2;ratioP2;P2;SDS_P1;SDS_P2;PMS_P1;PMS_P2;Temp;Humidity;BMP_temperature;BMP_pressure;BME280_temperature;BME280_humidity;BME280_pressure;Samples;Min_cycle;Max_cycle;Signal;HPM_P1;HPM_P2
2023/03/26 00:01:48;;;;;;;4.17;1.87;;;8.70;83.40;;;;;;5033778;28;20463;-76
2023/03/26 00:04:18;;;;;;;5.03;1.90;;;8.70;82.50;;;;;;5036217;28;20244;-75
2023/03/26 00:06:47;;;;;;;4.60;1.67;;;8.70;81.90;;;;;;5040118;28;20463;-76
2023/03/26 00:09:14;;;;;;;4.20;1.87;;;8.70;81.20;;;;;;5043931;28;20511;-75
2023/03/26 00:11:41;;;;;;;7.33;2.20;;;8.70;81.70;;;;;;5043013;28;20463;-75
2023/03/26 00:14:08;;;;;;;4.53;1.70;;;8.60;81.70;;;;;;5042396;28;20431;-77
2023/03/26 00:16:34;;;;;;;5.37;1.93;;;8.60;80.90;;;;;;5046661;28;20435;-79
2023/03/26 00:19:01;;;;;;;5.23;2.00;;;8.60;80.20;;;;;;5043855;28;20415;-79
2023/03/26 00:21:29;;;;;;;5.53;1.77;;;8.70;79.70;;;;;;5038098;28;20539;-76
2023/03/26 00:23:57;;;;;;;7.43;1.77;;;8.80;79.20;;;;;;5045301;28;20496;-78
2023/03/26 00:26:23;;;;;;;6.17;2.13;;;8.80;80.50;;;;;;5035060;28;20521;-77
2023/03/26 00:28:49;;;;;;;4.53;1.67;;;8.80;79.70;;;;;;5038476;28;20805;-76
2023/03/26 00:31:16;;;;;;;5.43;1.53;;;8.80;80.20;;;;;;5035614;28;20204;-76
2023/03/26 00:33:41;;;;;;;3.00;1.63;;;8.80;80.50;;;;;;5033923;28;20810;-75
2023/03/26 00:36:10;;;;;;;3.53;1.70;;;8.70;80.80;;;;;;5035898;28;20452;-74
2023/03/26 00:38:37;;;;;;;4.50;1.87;;;8.70;81.40;;;;;;5032552;28;20243;-75
2023/03/26 00:41:05;;;;;;;4.03;2.03;;;8.60;81.90;;;;;;5029853;28;20983;-75
2023/03/26 00:43:33;;;;;;;5.53;1.90;;;8.60;82.40;;;;;;5031093;28;20790;-75
2023/03/26 00:46:01;;;;;;;5.03;2.03;;;8.50;83.00;;;;;;5030883;28;20537;-76
2023/03/26 00:48:28;;;;;;;4.40;1.57;;;8.40;83.60;;;;;;5032321;28;20507;-77
2023/03/26 00:50:55;;;;;;;5.10;1.70;;;8.40;83.60;;;;;;5032994;28;20565;-74
2023/03/26 00:53:21;;;;;;;4.77;1.83;;;8.40;83.80;;;;;;5035220;28;20427;-76
2023/03/26 00:55:47;;;;;;;10.30;2.27;;;8.40;83.70;;;;;;5035816;28;20431;-75
2023/03/26 00:58:14;;;;;;;6.40;2.20;;;8.30;84.00;;;;;;5028534;28;20432;-77
2023/03/26 01:00:49;;;;;;;4.20;1.97;;;8.40;84.10;;;;;;5036923;28;20192;-76
2023/03/26 01:03:17;;;;;;;6.13;1.80;;;8.30;84.00;;;;;;5049588;28;20430;-76
2023/03/26 01:05:54;;;;;;;7.17;1.87;;;8.30;83.80;;;;;;5036701;28;21108;-75
2023/03/26 01:08:23;;;;;;;10.03;2.97;;;8.40;83.60;;;;;;5036075;28;20416;-75
2023/03/26 01:10:52;;;;;;;3.43;1.80;;;8.40;83.30;;;;;;5033182;28;20416;-75
2023/03/26 01:13:20;;;;;;;4.07;1.50;;;8.40;83.30;;;;;;5033438;28;20436;-75
2023/03/26 01:15:49;;;;;;;4.70;1.90;;;8.40;82.80;;;;;;5033093;28;20435;-76
2023/03/26 01:18:25;;;;;;;7.37;1.70;;;8.50;82.50;;;;;;5026733;28;20420;-75
2023/03/26 01:20:57;;;;;;;2.90;1.63;;;8.50;82.40;;;;;;5030705;28;20431;-75
2023/03/26 01:23:36;;;;;;;4.43;1.70;;;8.50;82.40;;;;;;5031254;28;20498;-77
2023/03/26 01:26:30;;;;;;;5.87;1.93;;;8.50;81.90;;;;;;5033317;28;20471;-75
2023/03/26 01:29:00;;;;;;;4.27;1.80;;;8.50;81.80;;;;;;4998234;28;20455;-75
2023/03/26 01:31:35;;;;;;;7.30;2.03;;;8.60;81.70;;;;;;5028651;28;21029;-75
2023/03/26 01:34:04;;;;;;;3.53;1.63;;;8.60;81.40;;;;;;5028623;28;20415;-78
2023/03/26 01:36:51;;;;;;;4.13;1.53;;;8.60;81.20;;;;;;5035454;28;20770;-77
2023/03/26 01:39:30;;;;;;;4.27;1.80;;;8.60;81.10;;;;;;5032070;28;20420;-75
2023/03/26 01:42:11;;;;;;;4.93;1.60;;;8.60;81.10;;;;;;5023990;28;20790;-77
2023/03/26 01:44:53;;;;;;;3.07;1.80;;;8.60;81.20;;;;;;5028574;28;20503;-76
2023/03/26 01:47:20;;;;;;;6.03;1.90;;;8.70;81.10;;;;;;5027964;28;20463;-76
2023/03/26 01:49:45;;;;;;;4.10;1.93;;;8.70;80.80;;;;;;5030423;28;20444;-76
2023/03/26 01:52:15;;;;;;;3.33;2.07;;;8.70;80.80;;;;;;5030496;28;20876;-76
2023/03/26 01:54:41;;;;;;;9.40;2.93;;;8.70;80.90;;;;;;5027433;28;20185;-77
2023/03/26 01:57:28;;;;;;;6.00;1.70;;;8.70;81.20;;;;;;5029957;28;20907;-75
2023/03/26 02:00:20;;;;;;;4.10;1.90;;;8.60;81.70;;;;;;5021316;28;20453;-75
2023/03/26 02:03:03;;;;;;;7.03;2.40;;;8.70;81.20;;;;;;5023341;28;20471;-75
2023/03/26 02:05:32;;;;;;;4.67;1.80;;;8.70;80.90;;;;;;5032107;28;20971;-76
2023/03/26 02:08:22;;;;;;;5.77;1.80;;;8.80;80.00;;;;;;5029842;28;20418;-76
2023/03/26 02:10:54;;;;;;;8.10;1.83;;;8.90;79.50;;;;;;5024854;28;20462;-76
2023/03/26 02:13:20;;;;;;;5.13;1.83;;;8.90;78.70;;;;;;5028439;28;20877;-77
2023/03/26 02:16:00;;;;;;;4.60;1.77;;;9.00;78.90;;;;;;5030683;28;20424;-76
2023/03/26 02:18:35;;;;;;;8.50;1.80;;;9.00;79.00;;;;;;5031244;28;20502;-76
2023/03/26 02:21:11;;;;;;;10.63;2.17;;;9.00;79.30;;;;;;5025620;28;20620;-76
2023/03/26 02:23:39;;;;;;;3.83;1.50;;;9.00;79.30;;;;;;5028292;28;20428;-75
2023/03/26 02:26:07;;;;;;;3.20;1.67;;;9.00;78.90;;;;;;5030395;28;20471;-75
2023/03/26 02:28:33;;;;;;;5.43;2.00;;;8.90;78.90;;;;;;5028793;28;20420;-75
2023/03/26 02:31:00;;;;;;;8.43;1.80;;;8.90;78.90;;;;;;5025909;28;20440;-77
2023/03/26 02:33:30;;;;;;;3.17;1.67;;;8.90;78.70;;;;;;5031459;28;20260;-76
2023/03/26 02:36:00;;;;;;;5.10;1.53;;;9.00;78.40;;;;;;5030124;28;20444;-76
2023/03/26 02:38:27;;;;;;;5.03;1.73;;;9.00;78.30;;;;;;5026454;28;20863;-77
2023/03/26 02:40:54;;;;;;;5.03;1.87;;;9.00;78.10;;;;;;5028758;28;20424;-76
2023/03/26 02:43:21;;;;;;;7.17;2.00;;;9.00;78.10;;;;;;5023421;28;20441;-76
2023/03/26 02:45:46;;;;;;;5.60;1.83;;;8.90;78.40;;;;;;5025196;28;20455;-77
2023/03/26 02:48:13;;;;;;;6.23;2.00;;;8.90;78.70;;;;;;5040933;28;20448;-76
2023/03/26 02:50:39;;;;;;;5.30;1.57;;;8.90;79.00;;;;;;5033436;28;20185;-76
2023/03/26 02:53:05;;;;;;;4.77;1.57;;;8.80;79.50;;;;;;5021622;28;20538;-77
2023/03/26 02:55:31;;;;;;;3.70;1.80;;;8.80;79.90;;;;;;5024015;28;20228;-76
2023/03/26 02:57:57;;;;;;;4.30;2.00;;;8.70;79.90;;;;;;5030741;28;20181;-75
2023/03/26 03:00:24;;;;;;;5.10;1.67;;;8.60;80.20;;;;;;5035629;28;20189;-75
2023/03/26 03:02:51;;;;;;;4.67;1.80;;;8.70;80.30;;;;;;5032410;28;20456;-76
2023/03/26 03:05:17;;;;;;;6.73;2.00;;;8.70;80.30;;;;;;5047912;28;20418;-76
2023/03/26 03:07:45;;;;;;;3.53;1.60;;;8.70;80.20;;;;;;5038545;28;21324;-75
2023/03/26 03:10:14;;;;;;;3.67;1.60;;;8.70;80.20;;;;;;5038279;28;20420;-77
2023/03/26 03:12:40;;;;;;;5.17;1.70;;;8.80;80.00;;;;;;5025618;28;20467;-75
2023/03/26 03:15:07;;;;;;;7.00;2.00;;;8.80;79.90;;;;;;5041321;28;20416;-77
2023/03/26 03:17:32;;;;;;;7.30;2.00;;;8.80;80.00;;;;;;5045589;28;20428;-77
2023/03/26 03:19:58;;;;;;;8.27;2.00;;;8.80;79.70;;;;;;5047651;28;20430;-77
2023/03/26 03:22:24;;;;;;;3.47;2.03;;;8.90;79.70;;;;;;5044587;28;20220;-75
2023/03/26 03:24:56;;;;;;;3.67;1.83;;;8.90;79.70;;;;;;5047143;28;20192;-75
2023/03/26 03:27:24;;;;;;;5.30;1.97;;;8.90;79.70;;;;;;5045709;28;20243;-75
2023/03/26 03:29:52;;;;;;;6.10;2.07;;;8.90;80.00;;;;;;5031699;28;20903;-76
2023/03/26 03:32:18;;;;;;;5.33;2.27;;;8.90;80.30;;;;;;5024523;28;20583;-75
2023/03/26 03:34:44;;;;;;;7.10;2.20;;;8.90;80.30;;;;;;5025425;28;20416;-77
2023/03/26 03:37:10;;;;;;;5.13;1.80;;;9.00;80.30;;;;;;5027374;28;20911;-77
2023/03/26 03:39:36;;;;;;;6.10;2.13;;;9.00;80.30;;;;;;5031002;28;20424;-75
2023/03/26 03:42:02;;;;;;;6.03;2.07;;;9.00;80.50;;;;;;5024638;28;21020;-76
2023/03/26 03:44:27;;;;;;;6.37;2.00;;;8.90;80.80;;;;;;5032448;28;20450;-76
2023/03/26 03:46:54;;;;;;;11.60;2.20;;;9.00;80.80;;;;;;5038729;28;20310;-76
2023/03/26 03:49:21;;;;;;;11.13;2.47;;;8.90;80.90;;;;;;5037554;28;20208;-75
2023/03/26 03:51:46;;;;;;;7.27;1.80;;;8.90;81.10;;;;;;5030376;28;20460;-76
2023/03/26 03:54:12;;;;;;;3.60;2.10;;;8.90;80.80;;;;;;5029569;28;20499;-75
2023/03/26 03:56:38;;;;;;;5.90;1.80;;;8.90;81.10;;;;;;5027065;28;20558;-75
2023/03/26 03:59:04;;;;;;;4.47;1.87;;;8.80;81.20;;;;;;5028440;28;20196;-75
2023/03/26 04:01:30;;;;;;;5.07;2.30;;;8.60;81.70;;;;;;5026664;28;20561;-77
2023/03/26 04:03:57;;;;;;;6.17;1.90;;;8.50;82.20;;;;;;5032642;28;20420;-75
2023/03/26 04:06:24;;;;;;;6.03;2.10;;;8.50;82.50;;;;;;5031839;28;20577;-75
2023/03/26 04:08:51;;;;;;;3.80;1.57;;;8.50;82.70;;;;;;5028966;28;20416;-75
2023/03/26 04:11:17;;;;;;;4.40;1.70;;;8.50;82.70;;;;;;5028411;28;20456;-76
2023/03/26 04:13:43;;;;;;;5.10;2.20;;;8.50;82.70;;;;;;5033277;28;20933;-76
2023/03/26 04:16:09;;;;;;;5.20;2.37;;;8.50;82.80;;;;;;5028975;28;20578;-77
2023/03/26 04:18:36;;;;;;;4.83;1.83;;;8.40;82.80;;;;;;5026955;28;20416;-76
2023/03/26 04:21:04;;;;;;;4.93;1.77;;;8.40;83.00;;;;;;5023449;28;20459;-77
2023/03/26 04:23:30;;;;;;;3.43;2.20;;;8.40;83.10;;;;;;5027152;28;20423;-77
2023/03/26 04:26:02;;;;;;;5.50;2.30;;;8.50;83.00;;;;;;5028101;28;20498;-76
2023/03/26 04:28:32;;;;;;;8.20;2.10;;;8.50;83.00;;;;;;5025474;28;20487;-77
2023/03/26 04:30:59;;;;;;;4.23;2.17;;;8.50;82.70;;;;;;5022275;28;20490;-78
2023/03/26 04:33:28;;;;;;;3.87;2.07;;;8.60;82.80;;;;;;5022805;28;20452;-75
2023/03/26 04:35:55;;;;;;;5.10;2.00;;;8.60;82.40;;;;;;5029673;28;20448;-75
2023/03/26 04:38:21;;;;;;;4.23;1.97;;;8.60;82.20;;;;;;5027032;28;20456;-77
2023/03/26 04:40:46;;;;;;;5.50;2.23;;;8.60;82.20;;;;;;5028377;28;20427;-77
2023/03/26 04:43:15;;;;;;;6.60;2.13;;;8.70;82.20;;;;;;5032325;28;20436;-75
2023/03/26 04:45:41;;;;;;;4.20;1.60;;;8.60;81.90;;;;;;5038038;28;20201;-75
2023/03/26 04:48:13;;;;;;;9.27;1.90;;;8.60;82.40;;;;;;5036075;28;20764;-76
2023/03/26 04:50:42;;;;;;;5.97;2.13;;;8.60;82.40;;;;;;5038510;28;20188;-75
2023/03/26 04:53:12;;;;;;;3.00;2.00;;;8.60;82.40;;;;;;5036042;28;20498;-76
2023/03/26 04:55:47;;;;;;;5.23;2.20;;;8.60;82.50;;;;;;5039103;28;20419;-76
2023/03/26 04:58:13;;;;;;;5.30;2.13;;;8.60;82.40;;;;;;5041040;28;20431;-76
2023/03/26 05:00:40;;;;;;;6.00;2.10;;;8.60;82.20;;;;;;5041225;28;20922;-75
2023/03/26 05:03:11;;;;;;;5.70;1.93;;;8.60;82.20;;;;;;5036134;28;20331;-77
2023/03/26 05:05:38;;;;;;;2.53;1.37;;;8.70;81.80;;;;;;5035985;28;20566;-76
2023/03/26 05:08:04;;;;;;;8.47;2.00;;;8.80;79.90;;;;;;5028184;28;20413;-75
2023/03/26 05:10:30;;;;;;;6.97;1.70;;;8.90;78.60;;;;;;5035807;28;20730;-76
2023/03/26 05:12:55;;;;;;;6.50;1.70;;;9.10;77.30;;;;;;5033411;28;20478;-76
2023/03/26 05:15:21;;;;;;;9.30;2.80;;;9.20;77.00;;;;;;5036393;28;20188;-75
2023/03/26 05:17:47;;;;;;;3.40;2.07;;;9.30;76.10;;;;;;5030308;28;20286;-75
2023/03/26 05:20:19;;;;;;;6.83;2.17;;;9.40;75.70;;;;;;5032790;28;20177;-77
2023/03/26 05:22:46;;;;;;;6.47;2.43;;;9.40;75.50;;;;;;5024631;28;20209;-75
2023/03/26 05:25:12;;;;;;;5.40;1.80;;;9.50;75.20;;;;;;5031352;28;20416;-76
2023/03/26 05:27:38;;;;;;;6.00;2.03;;;9.50;74.90;;;;;;5032204;28;20483;-76
2023/03/26 05:30:06;;;;;;;7.20;2.30;;;9.60;75.10;;;;;;5032418;28;20239;-76
2023/03/26 05:32:32;;;;;;;4.73;1.87;;;9.60;74.90;;;;;;5024601;28;20206;-76
2023/03/26 05:34:58;;;;;;;3.77;1.83;;;9.70;75.50;;;;;;5033112;28;20420;-75
2023/03/26 05:37:24;;;;;;;5.27;2.80;;;9.80;75.10;;;;;;5030862;28;20428;-76
2023/03/26 05:39:53;;;;;;;5.83;2.70;;;9.80;74.80;;;;;;5032092;28;20883;-75
2023/03/26 05:42:19;;;;;;;3.80;1.73;;;9.80;74.30;;;;;;5028935;28;20761;-77
2023/03/26 05:44:45;;;;;;;5.93;1.97;;;9.80;74.20;;;;;;5031650;28;20450;-75
2023/03/26 05:47:10;;;;;;;5.10;1.97;;;9.80;73.70;;;;;;5031541;28;20471;-75
2023/03/26 05:49:36;;;;;;;6.60;2.60;;;9.70;73.50;;;;;;5039714;28;20181;-75
2023/03/26 05:52:01;;;;;;;5.30;1.53;;;9.70;73.50;;;;;;5041116;28;20202;-75
2023/03/26 05:54:27;;;;;;;9.40;1.70;;;9.80;71.10;;;;;;5044657;28;20181;-78
2023/03/26 05:56:53;;;;;;;2.33;1.40;;;9.80;70.40;;;;;;5050907;28;20244;-75
2023/03/26 05:59:18;;;;;;;4.70;2.00;;;9.80;70.50;;;;;;5043480;28;21269;-75
2023/03/26 06:01:44;;;;;;;6.23;1.33;;;9.90;71.00;;;;;;5030713;28;20209;-77
2023/03/26 06:04:14;;;;;;;2.17;1.23;;;9.80;69.50;;;;;;5026670;28;20190;-75
2023/03/26 06:06:40;;;;;;;4.33;1.70;;;9.70;69.10;;;;;;5029801;28;20251;-74
2023/03/26 06:09:05;;;;;;;8.00;1.57;;;9.70;69.90;;;;;;5038629;28;20424;-75
2023/03/26 06:11:32;;;;;;;4.53;1.40;;;9.70;71.80;;;;;;5031430;28;20669;-77
2023/03/26 06:13:58;;;;;;;5.43;1.63;;;9.70;72.90;;;;;;5031053;28;20223;-76
2023/03/26 06:16:24;;;;;;;4.97;1.50;;;9.80;73.30;;;;;;5036560;28;20485;-75
2023/03/26 06:18:50;;;;;;;5.83;1.80;;;9.80;73.60;;;;;;5035253;28;20446;-76
2023/03/26 06:21:17;;;;;;;8.43;1.90;;;9.80;73.20;;;;;;5032276;28;21005;-77
2023/03/26 06:23:43;;;;;;;2.87;1.80;;;9.80;73.90;;;;;;5031611;28;20416;-76
2023/03/26 06:26:08;;;;;;;7.20;1.70;;;9.70;74.30;;;;;;5027764;28;20463;-77
2023/03/26 06:28:35;;;;;;;5.30;1.70;;;9.60;74.80;;;;;;5029607;28;20478;-75
2023/03/26 06:31:01;;;;;;;5.53;1.60;;;9.60;75.50;;;;;;5027965;28;20201;-76
2023/03/26 06:33:27;;;;;;;6.80;2.20;;;9.60;75.20;;;;;;5029770;28;20957;-75
2023/03/26 06:35:52;;;;;;;7.97;3.23;;;9.60;74.90;;;;;;5029146;28;20420;-76
2023/03/26 06:38:18;;;;;;;4.80;1.73;;;9.70;75.10;;;;;;5027790;28;20926;-76
2023/03/26 06:40:44;;;;;;;3.80;1.77;;;9.70;74.80;;;;;;5027623;28;20185;-76
2023/03/26 06:43:09;;;;;;;5.93;1.80;;;9.70;75.10;;;;;;5025075;28;20230;-76
2023/03/26 06:45:35;;;;;;;3.70;1.73;;;9.60;74.80;;;;;;5027825;28;20177;-78
2023/03/26 06:48:00;;;;;;;8.80;2.17;;;9.70;74.80;;;;;;5029343;28;20188;-75
2023/03/26 06:50:27;;;;;;;3.93;2.00;;;9.70;74.30;;;;;;5024731;28;20181;-75
2023/03/26 06:52:53;;;;;;;5.50;2.17;;;9.60;74.80;;;;;;5027071;28;20193;-75
2023/03/26 06:55:19;;;;;;;6.17;1.70;;;9.70;74.90;;;;;;5030459;28;20438;-77
2023/03/26 06:57:49;;;;;;;8.53;1.83;;;9.60;73.90;;;;;;5029238;28;20872;-75
2023/03/26 07:00:15;;;;;;;6.27;1.73;;;9.60;74.00;;;;;;5021928;28;20182;-75
2023/03/26 07:02:41;;;;;;;6.17;2.00;;;9.60;73.90;;;;;;5030014;28;20533;-76
2023/03/26 07:05:07;;;;;;;5.10;2.20;;;9.60;73.90;;;;;;5028913;28;20272;-76
2023/03/26 07:07:32;;;;;;;9.40;2.40;;;9.60;74.00;;;;;;5035794;28;20724;-76
2023/03/26 07:09:58;;;;;;;4.70;1.63;;;9.60;74.30;;;;;;5038573;28;20416;-76
2023/03/26 07:12:25;;;;;;;2.57;1.60;;;9.60;74.50;;;;;;5035383;28;20274;-75
2023/03/26 07:14:50;;;;;;;3.93;1.90;;;9.60;74.50;;;;;;5037808;28;20181;-76
2023/03/26 07:17:16;;;;;;;4.53;2.27;;;9.70;74.80;;;;;;5036784;28;21942;-76
2023/03/26 07:19:41;;;;;;;4.23;1.97;;;9.70;74.90;;;;;;5034863;28;20276;-77
2023/03/26 07:22:17;;;;;;;7.43;1.80;;;9.70;75.40;;;;;;5032206;28;20220;-77
2023/03/26 07:24:43;;;;;;;5.13;1.87;;;9.70;75.40;;;;;;5031018;28;20189;-76
2023/03/26 07:27:18;;;;;;;6.20;2.23;;;9.70;75.40;;;;;;5030225;28;20463;-76
2023/03/26 07:29:50;;;;;;;2.47;1.70;;;9.70;75.70;;;;;;5029311;28;20197;-75
2023/03/26 07:32:27;;;;;;;4.50;2.20;;;9.70;75.90;;;;;;5029028;28;20467;-75
2023/03/26 07:34:59;;;;;;;4.97;2.37;;;9.70;76.10;;;;;;5030413;28;20418;-75
2023/03/26 07:37:44;;;;;;;6.53;1.80;;;9.60;76.40;;;;;;5030073;28;21040;-76
2023/03/26 07:40:18;;;;;;;2.73;1.87;;;9.70;77.30;;;;;;5027158;28;20434;-75
2023/03/26 07:42:50;;;;;;;5.63;1.90;;;9.60;77.30;;;;;;5031776;28;20542;-74
2023/03/26 07:45:26;;;;;;;4.93;2.00;;;9.60;78.10;;;;;;5035057;28;20407;-77
2023/03/26 07:47:52;;;;;;;5.13;2.30;;;9.50;78.90;;;;;;5029504;28;20453;-77
2023/03/26 07:50:21;;;;;;;6.30;2.17;;;9.50;79.00;;;;;;5036007;28;20443;-77
2023/03/26 07:52:47;;;;;;;12.57;3.20;;;9.40;79.30;;;;;;5034895;28;20501;-78
2023/03/26 07:55:14;;;;;;;10.40;4.53;;;9.40;80.00;;;;;;5036700;28;20416;-76
2023/03/26 07:58:18;;;;;;;6.17;1.87;;;9.40;80.60;;;;;;5038664;28;20495;-77
2023/03/26 08:00:50;;;;;;;7.73;2.53;;;9.30;81.10;;;;;;5013225;28;20487;-76
2023/03/26 08:03:54;;;;;;;5.07;2.33;;;9.20;81.50;;;;;;5041703;28;20439;-76
2023/03/26 08:06:36;;;;;;;10.93;3.03;;;9.20;82.40;;;;;;5040182;28;20993;-75
2023/03/26 08:09:19;;;;;;;7.07;2.57;;;9.10;82.80;;;;;;5041149;28;20412;-76
2023/03/26 08:12:17;;;;;;;9.37;2.83;;;8.90;83.60;;;;;;5028925;28;20506;-77
2023/03/26 08:15:29;;;;;;;15.00;3.23;;;8.90;84.40;;;;;;5015383;28;20459;-75
2023/03/26 08:18:34;;;;;;;8.53;2.60;;;8.90;85.70;;;;;;4938378;29;20431;-76
2023/03/26 08:21:08;;;;;;;10.37;4.23;;;8.90;86.00;;;;;;4931587;29;20447;-75
2023/03/26 08:24:05;;;;;;;5.57;2.50;;;8.70;86.20;;;;;;4944275;29;20436;-76
2023/03/26 08:26:54;;;;;;;8.50;3.43;;;8.70;86.90;;;;;;4945865;29;20966;-75
2023/03/26 08:29:25;;;;;;;11.13;3.80;;;8.70;87.30;;;;;;4942316;29;20487;-76
2023/03/26 08:31:52;;;;;;;5.47;2.73;;;8.80;87.60;;;;;;4947361;29;20467;-75
2023/03/26 08:34:17;;;;;;;7.97;2.93;;;8.70;87.70;;;;;;4950616;29;20966;-75
2023/03/26 08:36:43;;;;;;;5.47;2.70;;;8.80;87.80;;;;;;4945691;29;20432;-75
2023/03/26 08:39:09;;;;;;;8.53;3.00;;;8.80;88.00;;;;;;4951483;29;20228;-76
2023/03/26 08:41:54;;;;;;;4.90;2.30;;;8.90;88.10;;;;;;4956326;29;20220;-76
2023/03/26 08:44:43;;;;;;;12.33;3.17;;;8.90;88.00;;;;;;4951781;29;20202;-75
2023/03/26 08:47:27;;;;;;;9.63;3.30;;;8.90;87.70;;;;;;4962414;29;20485;-76
2023/03/26 08:50:20;;;;;;;4.53;2.30;;;9.00;88.00;;;;;;4948307;29;20427;-77
2023/03/26 08:53:07;;;;;;;7.57;3.60;;;9.00;88.00;;;;;;4952214;29;20465;-75
2023/03/26 08:55:43;;;;;;;7.53;3.10;;;9.10;87.80;;;;;;5027013;28;20408;-75
2023/03/26 08:58:20;;;;;;;6.13;2.47;;;9.20;87.80;;;;;;5031610;28;20420;-75
2023/03/26 09:00:58;;;;;;;9.17;2.67;;;9.20;87.60;;;;;;5034460;28;20438;-79
2023/03/26 09:03:55;;;;;;;4.90;2.70;;;9.30;87.80;;;;;;5033487;28;20427;-77
2023/03/26 09:06:58;;;;;;;7.83;3.60;;;9.40;87.40;;;;;;5028998;28;20476;-77
2023/03/26 09:09:51;;;;;;;6.40;2.77;;;9.40;85.90;;;;;;5031205;28;20836;-75
2023/03/26 09:12:22;;;;;;;7.13;2.17;;;9.30;85.60;;;;;;5026718;28;20525;-77
2023/03/26 09:15:00;;;;;;;4.67;2.10;;;9.60;86.20;;;;;;5029642;28;20808;-77
2023/03/26 09:17:53;;;;;;;4.63;2.10;;;9.80;85.00;;;;;;5030715;28;20423;-77
2023/03/26 09:20:51;;;;;;;4.83;2.70;;;10.00;84.00;;;;;;5030106;28;20931;-75
2023/03/26 09:23:19;;;;;;;4.90;2.00;;;10.00;84.10;;;;;;4946984;29;20443;-78
2023/03/26 09:25:50;;;;;;;2.57;2.00;;;10.00;84.60;;;;;;4952236;29;20435;-76
2023/03/26 09:28:35;;;;;;;2.70;1.90;;;10.10;84.30;;;;;;4952380;29;20434;-78
2023/03/26 09:31:18;;;;;;;3.40;1.70;;;10.20;83.70;;;;;;4953172;29;20454;-77
2023/03/26 09:33:46;;;;;;;4.33;1.73;;;10.30;83.10;;;;;;4949646;28;20436;-76
2023/03/26 09:36:39;;;;;;;2.80;1.73;;;10.40;82.40;;;;;;4939096;29;20427;-75
2023/03/26 09:39:36;;;;;;;3.77;1.43;;;10.60;82.10;;;;;;4947778;29;20419;-76
2023/03/26 09:42:23;;;;;;;3.60;1.67;;;10.70;81.40;;;;;;4949488;28;21033;-77
2023/03/26 09:45:20;;;;;;;3.97;1.30;;;10.80;81.10;;;;;;4951764;29;20431;-78
2023/03/26 09:48:10;;;;;;;4.23;1.70;;;11.20;80.80;;;;;;4944352;29;21219;-76
2023/03/26 09:51:12;;;;;;;2.37;1.37;;;11.50;78.90;;;;;;4939285;29;21216;-75
2023/03/26 09:54:11;;;;;;;5.63;1.63;;;11.80;77.70;;;;;;4934328;29;20415;-76
2023/03/26 09:57:03;;;;;;;2.20;1.20;;;11.80;76.50;;;;;;4947536;29;20426;-75
2023/03/26 09:59:41;;;;;;;4.00;1.40;;;11.80;75.70;;;;;;5008836;28;20483;-75
2023/03/26 10:02:25;;;;;;;3.57;1.57;;;11.90;75.90;;;;;;5035316;28;20455;-75
2023/03/26 10:05:13;;;;;;;4.10;1.60;;;12.00;75.20;;;;;;5030770;28;20525;-75
2023/03/26 10:08:15;;;;;;;3.67;1.27;;;12.30;74.80;;;;;;5026795;28;21045;-74
2023/03/26 10:11:06;;;;;;;2.83;1.30;;;12.40;73.50;;;;;;5026406;28;20463;-77
2023/03/26 10:13:53;;;;;;;1.50;1.17;;;12.40;73.00;;;;;;5035416;28;20895;-77
2023/03/26 10:16:41;;;;;;;1.43;1.10;;;12.00;73.20;;;;;;5035881;28;20451;-76
2023/03/26 10:19:15;;;;;;;4.40;1.27;;;12.00;73.00;;;;;;5030606;28;20458;-77
2023/03/26 10:22:18;;;;;;;2.40;1.40;;;12.10;73.20;;;;;;5037529;28;20600;-76
2023/03/26 10:25:12;;;;;;;4.77;1.70;;;12.00;72.90;;;;;;5037904;28;20424;-75
2023/03/26 10:28:12;;;;;;;1.73;1.37;;;12.10;72.90;;;;;;5038749;28;20456;-76
2023/03/26 10:31:02;;;;;;;3.20;1.10;;;12.20;73.20;;;;;;5032151;28;20416;-76
2023/03/26 10:33:53;;;;;;;8.33;1.80;;;12.40;72.70;;;;;;5037301;28;20416;-77
2023/03/26 10:36:34;;;;;;;2.27;1.27;;;12.30;71.60;;;;;;5033881;28;20424;-77
2023/03/26 10:39:27;;;;;;;2.17;1.33;;;12.00;70.70;;;;;;5030884;28;20942;-76
2023/03/26 10:41:53;;;;;;;2.13;1.20;;;12.10;71.30;;;;;;5027204;28;20835;-77
2023/03/26 10:44:21;;;;;;;2.47;1.30;;;12.30;71.00;;;;;;5028484;28;20428;-76
2023/03/26 10:47:21;;;;;;;2.40;1.23;;;12.60;69.10;;;;;;5026089;28;20248;-76
2023/03/26 10:50:20;;;;;;;2.07;1.17;;;13.00;67.60;;;;;;5026324;28;20413;-76
2023/03/26 10:52:54;;;;;;;2.17;1.07;;;13.40;65.80;;;;;;5022765;28;20602;-78
2023/03/26 10:55:40;;;;;;;3.00;1.50;;;13.60;63.50;;;;;;5025713;28;20809;-75
2023/03/26 10:58:16;;;;;;;2.10;0.90;;;14.00;63.10;;;;;;5023293;28;20437;-77
2023/03/26 11:00:52;;;;;;;1.40;0.90;;;14.40;61.20;;;;;;5025986;28;20412;-76
2023/03/26 11:04:02;;;;;;;3.60;1.10;;;14.70;59.30;;;;;;5025382;28;21047;-77
2023/03/26 11:06:52;;;;;;;6.27;1.40;;;14.70;58.40;;;;;;4944276;29;20482;-75
2023/03/26 11:09:32;;;;;;;2.20;1.13;;;14.40;58.90;;;;;;4956049;28;20446;-79
2023/03/26 11:12:04;;;;;;;3.77;1.10;;;14.50;59.50;;;;;;4946351;29;20568;-78
2023/03/26 11:14:40;;;;;;;2.73;1.10;;;14.80;58.50;;;;;;4940391;29;20917;-77
2023/03/26 11:17:15;;;;;;;1.57;1.00;;;14.30;56.90;;;;;;4947221;29;20427;-78
2023/03/26 11:19:56;;;;;;;2.53;1.10;;;14.00;58.10;;;;;;4936276;29;20427;-77
2023/03/26 11:23:05;;;;;;;4.60;1.17;;;13.90;58.90;;;;;;4951029;29;21081;-75
2023/03/26 11:25:40;;;;;;;2.63;1.03;;;13.90;58.40;;;;;;4950864;29;20429;-78
2023/03/26 11:28:15;;;;;;;1.83;1.23;;;14.20;57.80;;;;;;4952066;29;20447;-77
2023/03/26 11:31:14;;;;;;;1.70;0.97;;;14.30;58.10;;;;;;4959431;29;20435;-76
2023/03/26 11:33:46;;;;;;;1.57;0.97;;;14.10;59.20;;;;;;4949905;29;20441;-77
2023/03/26 11:36:20;;;;;;;4.43;1.30;;;14.40;59.10;;;;;;4961431;29;20588;-75
2023/03/26 11:38:52;;;;;;;1.60;0.83;;;14.60;57.60;;;;;;4948034;29;20535;-77
2023/03/26 11:41:24;;;;;;;1.60;0.73;;;14.40;58.40;;;;;;4948871;29;20519;-77
2023/03/26 11:44:19;;;;;;;2.00;1.20;;;14.20;59.20;;;;;;5001886;28;20431;-77
2023/03/26 11:46:45;;;;;;;2.00;1.00;;;14.20;58.20;;;;;;5024862;28;20465;-77
2023/03/26 11:49:15;;;;;;;1.23;0.90;;;14.40;57.60;;;;;;5025047;28;20431;-76
2023/03/26 11:51:42;;;;;;;1.47;1.00;;;14.60;56.10;;;;;;5024555;28;20545;-77
2023/03/26 11:54:11;;;;;;;2.90;1.10;;;14.80;54.10;;;;;;5028562;28;20425;-75
2023/03/26 11:56:48;;;;;;;2.73;1.00;;;14.70;54.50;;;;;;5023695;28;20436;-77
2023/03/26 11:59:13;;;;;;;2.80;0.90;;;14.70;54.40;;;;;;5051795;28;20429;-76
2023/03/26 12:01:54;;;;;;;1.23;0.90;;;14.90;54.40;;;;;;5033710;28;20887;-77
2023/03/26 12:04:40;;;;;;;2.30;1.10;;;14.90;53.00;;;;;;5032395;28;20196;-78
2023/03/26 12:07:13;;;;;;;6.90;1.27;;;14.60;52.20;;;;;;5036054;28;20531;-75
2023/03/26 12:09:48;;;;;;;2.20;1.13;;;14.70;52.60;;;;;;5030879;28;20427;-76
2023/03/26 12:12:15;;;;;;;4.73;1.10;;;14.90;52.60;;;;;;5031401;28;20583;-77
2023/03/26 12:14:42;;;;;;;2.60;1.30;;;15.20;51.00;;;;;;5032482;28;20508;-77
2023/03/26 12:17:13;;;;;;;1.30;0.90;;;15.20;50.20;;;;;;5033077;28;20982;-75
2023/03/26 12:19:41;;;;;;;3.10;1.23;;;15.30;50.10;;;;;;5034009;28;20457;-77
2023/03/26 12:22:35;;;;;;;3.50;1.10;;;15.30;50.60;;;;;;5031038;28;20514;-77
2023/03/26 12:25:31;;;;;;;2.57;1.20;;;15.50;49.80;;;;;;5052599;28;20424;-76
2023/03/26 12:28:08;;;;;;;2.90;1.10;;;15.60;49.90;;;;;;5027540;28;20486;-78
2023/03/26 12:30:36;;;;;;;2.70;1.13;;;15.80;49.50;;;;;;5043108;28;20850;-78
2023/03/26 12:33:07;;;;;;;2.63;1.20;;;16.10;48.70;;;;;;5045905;28;20467;-78
2023/03/26 12:35:34;;;;;;;1.43;0.93;;;15.80;48.60;;;;;;5038956;28;20432;-76
2023/03/26 12:38:34;;;;;;;1.57;0.90;;;15.70;47.00;;;;;;5042976;28;20481;-75
2023/03/26 12:41:07;;;;;;;1.87;0.90;;;15.00;48.50;;;;;;4955210;29;20615;-76
2023/03/26 12:43:48;;;;;;;4.87;1.43;;;14.60;48.90;;;;;;4955182;29;20806;-77
2023/03/26 12:46:26;;;;;;;5.43;1.33;;;14.20;50.60;;;;;;4955924;29;21006;-76
2023/03/26 12:48:54;;;;;;;2.80;1.40;;;14.30;52.90;;;;;;4950226;29;20551;-75
2023/03/26 12:51:40;;;;;;;3.43;1.20;;;14.20;61.00;;;;;;4946799;29;20602;-75
2023/03/26 12:54:33;;;;;;;3.87;1.53;;;14.30;63.10;;;;;;4943876;29;20435;-77
2023/03/26 12:57:21;;;;;;;5.00;1.40;;;14.50;63.20;;;;;;4951966;29;20490;-77
2023/03/26 13:00:24;;;;;;;4.53;1.30;;;14.60;62.50;;;;;;4943640;29;20522;-77
2023/03/26 13:03:29;;;;;;;3.80;1.97;;;14.60;62.60;;;;;;4941142;29;20502;-77
2023/03/26 13:06:39;;;;;;;3.87;1.57;;;15.10;61.70;;;;;;4946700;29;20489;-76
2023/03/26 13:09:16;;;;;;;4.03;1.50;;;15.60;60.00;;;;;;4915553;29;20442;-74
2023/03/26 13:11:59;;;;;;;4.20;1.53;;;15.80;59.10;;;;;;4939357;29;20474;-78
2023/03/26 13:14:33;;;;;;;2.40;1.37;;;15.80;57.80;;;;;;4948718;29;20580;-75
2023/03/26 13:17:11;;;;;;;1.70;1.03;;;16.30;57.60;;;;;;5009874;28;20462;-76
2023/03/26 13:19:41;;;;;;;1.93;1.00;;;16.80;53.80;;;;;;5049220;28;20431;-76
2023/03/26 13:22:16;;;;;;;3.50;1.20;;;16.60;46.20;;;;;;5032255;28;20559;-76
2023/03/26 13:25:12;;;;;;;2.20;1.07;;;16.30;46.30;;;;;;5037422;28;20477;-75
2023/03/26 13:27:48;;;;;;;2.97;1.40;;;15.80;45.30;;;;;;5032566;28;20537;-76
2023/03/26 13:31:01;;;;;;;6.13;1.37;;;15.30;47.30;;;;;;5027077;28;20428;-77